sensor_id;sensor_type;location;lat;lon;timestamp;temperature;humidity
48806;DHT22;34625;47.176;27.548;2023-04-19T00:00:51;22.90;60.00
48806;DHT22;34625;47.176;27.548;2023-04-19T00:03:17;22.90;60.00
48806;DHT22;34625;47.176;27.548;2023-04-19T00:05:43;22.90;60.10
48806;DHT22;34625;47.176;27.548;2023-04-19T00:08:09;22.90;60.10
48806;DHT22;34625;47.176;27.548;2023-04-19T00:10:35;22.90;59.90
48806;DHT22;34625;47.176;27.548;2023-04-19T00:13:02;23.00;59.80
48806;DHT22;34625;47.176;27.548;2023-04-19T00:15:28;23.00;59.80
48806;DHT22;34625;47.176;27.548;2023-04-19T00:17:54;23.00;59.70
48806;DHT22;34625;47.176;27.548;2023-04-19T00:20:20;23.00;59.70
48806;DHT22;34625;47.176;27.548;2023-04-19T00:22:46;23.00;59.80
48806;DHT22;34625;47.176;27.548;2023-04-19T00:25:13;23.10;59.80
48806;DHT22;34625;47.176;27.548;2023-04-19T00:27:39;23.00;59.50
48806;DHT22;34625;47.176;27.548;2023-04-19T00:30:05;23.10;59.50
48806;DHT22;34625;47.176;27.548;2023-04-19T00:32:32;23.10;59.40
48806;DHT22;34625;47.176;27.548;2023-04-19T00:34:58;23.00;59.30
48806;DHT22;34625;47.176;27.548;2023-04-19T00:37:24;23.00;59.30
48806;DHT22;34625;47.176;27.548;2023-04-19T00:39:50;23.10;59.40
48806;DHT22;34625;47.176;27.548;2023-04-19T00:42:16;23.10;59.30
48806;DHT22;34625;47.176;27.548;2023-04-19T00:44:42;23.10;59.40
48806;DHT22;34625;47.176;27.548;2023-04-19T00:47:08;22.90;59.40
48806;DHT22;34625;47.176;27.548;2023-04-19T00:49:35;22.90;59.70
48806;DHT22;34625;47.176;27.548;2023-04-19T00:52:01;23.00;59.40
48806;DHT22;34625;47.176;27.548;2023-04-19T00:54:28;23.00;59.50
48806;DHT22;34625;47.176;27.548;2023-04-19T00:56:55;22.90;59.60
48806;DHT22;34625;47.176;27.548;2023-04-19T00:59:23;22.80;59.60
48806;DHT22;34625;47.176;27.548;2023-04-19T01:01:50;22.90;60.00
48806;DHT22;34625;47.176;27.548;2023-04-19T01:04:16;22.80;59.90
48806;DHT22;34625;47.176;27.548;2023-04-19T01:06:42;22.90;60.00
48806;DHT22;34625;47.176;27.548;2023-04-19T01:09:10;22.90;59.90
48806;DHT22;34625;47.176;27.548;2023-04-19T01:11:39;22.90;59.90
48806;DHT22;34625;47.176;27.548;2023-04-19T01:14:06;22.90;59.90
48806;DHT22;34625;47.176;27.548;2023-04-19T01:16:32;23.00;59.90
48806;DHT22;34625;47.176;27.548;2023-04-19T01:18:58;22.80;59.90
48806;DHT22;34625;47.176;27.548;2023-04-19T01:21:25;22.90;59.90
48806;DHT22;34625;47.176;27.548;2023-04-19T01:23:54;23.00;59.60
48806;DHT22;34625;47.176;27.548;2023-04-19T01:26:21;22.90;59.70
48806;DHT22;34625;47.176;27.548;2023-04-19T01:28:47;23.00;59.60
48806;DHT22;34625;47.176;27.548;2023-04-19T01:31:15;22.90;59.60
48806;DHT22;34625;47.176;27.548;2023-04-19T01:33:41;22.90;59.80
48806;DHT22;34625;47.176;27.548;2023-04-19T01:36:08;22.70;59.60
48806;DHT22;34625;47.176;27.548;2023-04-19T01:38:34;22.90;59.80
48806;DHT22;34625;47.176;27.548;2023-04-19T01:41:00;22.90;60.00
48806;DHT22;34625;47.176;27.548;2023-04-19T01:43:26;22.70;59.80
48806;DHT22;34625;47.176;27.548;2023-04-19T01:45:52;22.70;59.90
48806;DHT22;34625;47.176;27.548;2023-04-19T01:48:19;22.70;60.00
48806;DHT22;34625;47.176;27.548;2023-04-19T01:50:45;22.70;59.90
48806;DHT22;34625;47.176;27.548;2023-04-19T01:53:11;22.70;60.00
48806;DHT22;34625;47.176;27.548;2023-04-19T01:55:37;22.70;60.10
48806;DHT22;34625;47.176;27.548;2023-04-19T01:58:03;22.80;60.00
48806;DHT22;34625;47.176;27.548;2023-04-19T02:00:29;22.70;59.90
48806;DHT22;34625;47.176;27.548;2023-04-19T02:02:56;22.70;59.90
48806;DHT22;34625;47.176;27.548;2023-04-19T02:05:22;22.80;59.90
48806;DHT22;34625;47.176;27.548;2023-04-19T02:07:48;22.80;59.80
48806;DHT22;34625;47.176;27.548;2023-04-19T02:10:14;22.80;59.80
48806;DHT22;34625;47.176;27.548;2023-04-19T02:12:41;22.80;60.00
48806;DHT22;34625;47.176;27.548;2023-04-19T02:15:08;22.70;59.70
48806;DHT22;34625;47.176;27.548;2023-04-19T02:17:34;22.80;59.60
48806;DHT22;34625;47.176;27.548;2023-04-19T02:20:00;22.70;59.50
48806;DHT22;34625;47.176;27.548;2023-04-19T02:22:27;22.90;59.60
48806;DHT22;34625;47.176;27.548;2023-04-19T02:24:53;22.80;59.60
48806;DHT22;34625;47.176;27.548;2023-04-19T02:27:24;22.70;59.70
48806;DHT22;34625;47.176;27.548;2023-04-19T02:29:51;22.80;59.60
48806;DHT22;34625;47.176;27.548;2023-04-19T02:32:17;22.70;59.60
48806;DHT22;34625;47.176;27.548;2023-04-19T02:34:43;22.50;59.50
48806;DHT22;34625;47.176;27.548;2023-04-19T02:37:09;22.60;59.70
48806;DHT22;34625;47.176;27.548;2023-04-19T02:39:35;22.60;59.70
48806;DHT22;34625;47.176;27.548;2023-04-19T02:42:01;22.60;59.70
48806;DHT22;34625;47.176;27.548;2023-04-19T02:44:27;22.60;59.80
48806;DHT22;34625;47.176;27.548;2023-04-19T02:46:53;22.60;59.80
48806;DHT22;34625;47.176;27.548;2023-04-19T02:49:20;22.50;60.00
48806;DHT22;34625;47.176;27.548;2023-04-19T02:51:46;22.50;60.00
48806;DHT22;34625;47.176;27.548;2023-04-19T02:54:13;22.60;60.10
48806;DHT22;34625;47.176;27.548;2023-04-19T02:56:41;22.50;60.00
48806;DHT22;34625;47.176;27.548;2023-04-19T02:59:07;22.50;60.10
48806;DHT22;34625;47.176;27.548;2023-04-19T03:01:34;22.60;60.00
48806;DHT22;34625;47.176;27.548;2023-04-19T03:04:03;22.60;59.90
48806;DHT22;34625;47.176;27.548;2023-04-19T03:06:31;22.60;59.90
48806;DHT22;34625;47.176;27.548;2023-04-19T03:08:57;22.60;59.80
48806;DHT22;34625;47.176;27.548;2023-04-19T03:11:23;22.60;59.90
48806;DHT22;34625;47.176;27.548;2023-04-19T03:13:50;22.80;59.70
48806;DHT22;34625;47.176;27.548;2023-04-19T03:16:16;22.60;59.50
48806;DHT22;34625;47.176;27.548;2023-04-19T03:18:43;22.50;59.60
48806;DHT22;34625;47.176;27.548;2023-04-19T03:21:10;22.60;59.80
48806;DHT22;34625;47.176;27.548;2023-04-19T03:23:50;22.60;59.70
48806;DHT22;34625;47.176;27.548;2023-04-19T03:26:17;22.60;59.50
48806;DHT22;34625;47.176;27.548;2023-04-19T03:28:46;22.60;59.40
48806;DHT22;34625;47.176;27.548;2023-04-19T03:31:15;22.80;59.70
48806;DHT22;34625;47.176;27.548;2023-04-19T03:33:42;22.70;59.50
48806;DHT22;34625;47.176;27.548;2023-04-19T03:36:11;22.80;59.60
48806;DHT22;34625;47.176;27.548;2023-04-19T03:38:38;22.90;59.50
48806;DHT22;34625;47.176;27.548;2023-04-19T03:41:19;22.80;59.10
48806;DHT22;34625;47.176;27.548;2023-04-19T03:43:47;22.90;59.10
48806;DHT22;34625;47.176;27.548;2023-04-19T03:46:13;22.90;59.00
48806;DHT22;34625;47.176;27.548;2023-04-19T03:48:40;23.00;59.00
48806;DHT22;34625;47.176;27.548;2023-04-19T03:51:06;23.00;59.00
48806;DHT22;34625;47.176;27.548;2023-04-19T03:53:32;23.00;59.00
48806;DHT22;34625;47.176;27.548;2023-04-19T03:55:59;23.00;59.00
48806;DHT22;34625;47.176;27.548;2023-04-19T03:58:25;22.90;63.00
48806;DHT22;34625;47.176;27.548;2023-04-19T04:01:02;23.30;62.60
48806;DHT22;34625;47.176;27.548;2023-04-19T04:03:29;23.50;61.70
48806;DHT22;34625;47.176;27.548;2023-04-19T04:05:55;23.90;65.10
48806;DHT22;34625;47.176;27.548;2023-04-19T04:08:21;23.90;58.50
48806;DHT22;34625;47.176;27.548;2023-04-19T04:10:47;23.90;60.00
48806;DHT22;34625;47.176;27.548;2023-04-19T04:13:14;23.90;65.90
48806;DHT22;34625;47.176;27.548;2023-04-19T04:15:48;23.90;59.20
48806;DHT22;34625;47.176;27.548;2023-04-19T04:18:16;24.00;57.50
48806;DHT22;34625;47.176;27.548;2023-04-19T04:20:43;23.90;56.40
48806;DHT22;34625;47.176;27.548;2023-04-19T04:23:10;23.70;55.90
48806;DHT22;34625;47.176;27.548;2023-04-19T04:25:40;23.80;55.70
48806;DHT22;34625;47.176;27.548;2023-04-19T04:28:10;23.80;55.10
48806;DHT22;34625;47.176;27.548;2023-04-19T04:30:38;23.80;54.70
48806;DHT22;34625;47.176;27.548;2023-04-19T04:33:07;23.80;54.30
48806;DHT22;34625;47.176;27.548;2023-04-19T04:35:37;23.70;54.00
48806;DHT22;34625;47.176;27.548;2023-04-19T04:38:11;23.80;53.60
48806;DHT22;34625;47.176;27.548;2023-04-19T04:40:38;23.90;53.40
48806;DHT22;34625;47.176;27.548;2023-04-19T04:43:04;23.90;53.20
48806;DHT22;34625;47.176;27.548;2023-04-19T04:45:32;23.90;52.90
48806;DHT22;34625;47.176;27.548;2023-04-19T04:47:58;23.80;52.60
48806;DHT22;34625;47.176;27.548;2023-04-19T04:50:25;23.70;52.40
48806;DHT22;34625;47.176;27.548;2023-04-19T04:52:52;23.70;52.20
48806;DHT22;34625;47.176;27.548;2023-04-19T04:55:26;23.70;52.30
48806;DHT22;34625;47.176;27.548;2023-04-19T04:57:52;23.90;54.10
48806;DHT22;34625;47.176;27.548;2023-04-19T05:00:29;23.80;55.00
48806;DHT22;34625;47.176;27.548;2023-04-19T05:03:02;23.90;53.80
48806;DHT22;34625;47.176;27.548;2023-04-19T05:05:30;23.90;52.60
48806;DHT22;34625;47.176;27.548;2023-04-19T05:07:56;23.90;52.10
48806;DHT22;34625;47.176;27.548;2023-04-19T05:10:22;23.80;51.70
48806;DHT22;34625;47.176;27.548;2023-04-19T05:12:48;23.90;53.40
48806;DHT22;34625;47.176;27.548;2023-04-19T05:15:14;23.90;55.80
48806;DHT22;34625;47.176;27.548;2023-04-19T05:17:47;23.90;56.70
48806;DHT22;34625;47.176;27.548;2023-04-19T05:20:13;23.80;58.70
48806;DHT22;34625;47.176;27.548;2023-04-19T05:22:40;23.90;51.80
48806;DHT22;34625;47.176;27.548;2023-04-19T05:25:09;23.80;51.20
48806;DHT22;34625;47.176;27.548;2023-04-19T05:27:35;23.80;51.10
48806;DHT22;34625;47.176;27.548;2023-04-19T05:30:03;23.80;57.20
48806;DHT22;34625;47.176;27.548;2023-04-19T05:32:30;23.80;57.00
48806;DHT22;34625;47.176;27.548;2023-04-19T05:34:58;23.90;57.10
48806;DHT22;34625;47.176;27.548;2023-04-19T05:37:24;23.80;57.20
48806;DHT22;34625;47.176;27.548;2023-04-19T05:39:50;23.90;57.60
48806;DHT22;34625;47.176;27.548;2023-04-19T05:42:17;23.90;57.60
48806;DHT22;34625;47.176;27.548;2023-04-19T05:44:43;23.90;58.10
48806;DHT22;34625;47.176;27.548;2023-04-19T05:47:10;23.80;58.20
48806;DHT22;34625;47.176;27.548;2023-04-19T05:49:56;23.90;57.10
48806;DHT22;34625;47.176;27.548;2023-04-19T05:52:35;24.10;57.50
48806;DHT22;34625;47.176;27.548;2023-04-19T05:55:04;24.30;56.40
48806;DHT22;34625;47.176;27.548;2023-04-19T05:57:32;24.50;58.90
48806;DHT22;34625;47.176;27.548;2023-04-19T05:59:58;24.50;56.10
48806;DHT22;34625;47.176;27.548;2023-04-19T06:02:39;24.40;58.00
48806;DHT22;34625;47.176;27.548;2023-04-19T06:05:06;24.30;56.70
48806;DHT22;34625;47.176;27.548;2023-04-19T06:07:32;24.40;59.60
48806;DHT22;34625;47.176;27.548;2023-04-19T06:09:58;24.50;62.00
48806;DHT22;34625;47.176;27.548;2023-04-19T06:12:24;25.00;62.20
48806;DHT22;34625;47.176;27.548;2023-04-19T06:14:51;25.20;59.60
48806;DHT22;34625;47.176;27.548;2023-04-19T06:17:17;25.10;56.90
48806;DHT22;34625;47.176;27.548;2023-04-19T06:19:53;25.10;57.80
48806;DHT22;34625;47.176;27.548;2023-04-19T06:22:19;25.00;56.30
48806;DHT22;34625;47.176;27.548;2023-04-19T06:24:46;25.00;55.80
48806;DHT22;34625;47.176;27.548;2023-04-19T06:27:14;24.90;55.80
48806;DHT22;34625;47.176;27.548;2023-04-19T06:29:40;25.00;61.70
48806;DHT22;34625;47.176;27.548;2023-04-19T06:32:06;24.90;57.30
48806;DHT22;34625;47.176;27.548;2023-04-19T06:34:32;24.90;56.40
48806;DHT22;34625;47.176;27.548;2023-04-19T06:36:58;25.00;54.90
48806;DHT22;34625;47.176;27.548;2023-04-19T06:39:24;24.90;55.40
48806;DHT22;34625;47.176;27.548;2023-04-19T06:41:50;25.00;60.80
48806;DHT22;34625;47.176;27.548;2023-04-19T06:44:16;25.10;60.80
48806;DHT22;34625;47.176;27.548;2023-04-19T06:46:42;25.20;59.60
48806;DHT22;34625;47.176;27.548;2023-04-19T06:49:08;25.20;58.20
48806;DHT22;34625;47.176;27.548;2023-04-19T06:51:34;25.10;54.70
48806;DHT22;34625;47.176;27.548;2023-04-19T06:54:00;25.10;52.10
48806;DHT22;34625;47.176;27.548;2023-04-19T06:56:43;25.20;55.30
48806;DHT22;34625;47.176;27.548;2023-04-19T06:59:14;25.30;54.30
48806;DHT22;34625;47.176;27.548;2023-04-19T07:01:42;25.20;55.00
48806;DHT22;34625;47.176;27.548;2023-04-19T07:04:08;25.30;55.30
48806;DHT22;34625;47.176;27.548;2023-04-19T07:06:38;25.30;52.60
48806;DHT22;34625;47.176;27.548;2023-04-19T07:09:05;25.30;68.30
48806;DHT22;34625;47.176;27.548;2023-04-19T07:11:32;25.40;55.40
48806;DHT22;34625;47.176;27.548;2023-04-19T07:13:58;25.50;50.50
48806;DHT22;34625;47.176;27.548;2023-04-19T07:16:27;25.50;49.60
48806;DHT22;34625;47.176;27.548;2023-04-19T07:18:53;25.70;58.30
48806;DHT22;34625;47.176;27.548;2023-04-19T07:21:19;25.60;59.20
48806;DHT22;34625;47.176;27.548;2023-04-19T07:23:45;25.80;64.90
48806;DHT22;34625;47.176;27.548;2023-04-19T07:26:11;25.60;62.60
48806;DHT22;34625;47.176;27.548;2023-04-19T07:28:39;25.70;58.10
48806;DHT22;34625;47.176;27.548;2023-04-19T07:31:05;25.50;55.40
48806;DHT22;34625;47.176;27.548;2023-04-19T07:33:31;25.50;55.00
48806;DHT22;34625;47.176;27.548;2023-04-19T07:35:57;25.50;54.60
48806;DHT22;34625;47.176;27.548;2023-04-19T07:38:23;25.70;53.70
48806;DHT22;34625;47.176;27.548;2023-04-19T07:40:50;25.50;56.60
48806;DHT22;34625;47.176;27.548;2023-04-19T07:43:16;25.70;54.20
48806;DHT22;34625;47.176;27.548;2023-04-19T07:45:42;25.70;55.40
48806;DHT22;34625;47.176;27.548;2023-04-19T07:48:08;25.70;53.90
48806;DHT22;34625;47.176;27.548;2023-04-19T07:50:34;25.70;53.50
48806;DHT22;34625;47.176;27.548;2023-04-19T07:53:00;25.60;51.60
48806;DHT22;34625;47.176;27.548;2023-04-19T07:55:26;25.50;46.90
48806;DHT22;34625;47.176;27.548;2023-04-19T07:57:52;25.60;48.30
48806;DHT22;34625;47.176;27.548;2023-04-19T08:00:18;25.60;56.90
48806;DHT22;34625;47.176;27.548;2023-04-19T08:02:47;25.70;47.50
48806;DHT22;34625;47.176;27.548;2023-04-19T08:05:14;25.60;49.20
48806;DHT22;34625;47.176;27.548;2023-04-19T08:07:42;25.60;51.90
48806;DHT22;34625;47.176;27.548;2023-04-19T08:10:09;25.70;52.00
48806;DHT22;34625;47.176;27.548;2023-04-19T08:12:35;25.60;56.60
48806;DHT22;34625;47.176;27.548;2023-04-19T08:15:02;25.60;48.00
48806;DHT22;34625;47.176;27.548;2023-04-19T08:17:28;25.60;49.80
48806;DHT22;34625;47.176;27.548;2023-04-19T08:19:54;25.50;47.10
48806;DHT22;34625;47.176;27.548;2023-04-19T08:22:20;25.60;49.30
48806;DHT22;34625;47.176;27.548;2023-04-19T08:24:48;25.40;46.00
48806;DHT22;34625;47.176;27.548;2023-04-19T08:27:16;25.30;44.60
48806;DHT22;34625;47.176;27.548;2023-04-19T08:29:42;25.30;44.60
48806;DHT22;34625;47.176;27.548;2023-04-19T08:32:09;25.30;46.00
48806;DHT22;34625;47.176;27.548;2023-04-19T08:34:36;25.40;44.10
48806;DHT22;34625;47.176;27.548;2023-04-19T08:37:02;25.30;44.80
48806;DHT22;34625;47.176;27.548;2023-04-19T08:39:33;25.30;44.50
48806;DHT22;34625;47.176;27.548;2023-04-19T08:42:07;25.10;47.20
48806;DHT22;34625;47.176;27.548;2023-04-19T08:44:34;25.20;47.70
48806;DHT22;34625;47.176;27.548;2023-04-19T08:47:04;25.30;51.40
48806;DHT22;34625;47.176;27.548;2023-04-19T08:49:39;25.40;47.10
48806;DHT22;34625;47.176;27.548;2023-04-19T08:52:06;25.30;47.20
48806;DHT22;34625;47.176;27.548;2023-04-19T08:54:34;25.50;50.90
48806;DHT22;34625;47.176;27.548;2023-04-19T08:57:01;25.60;50.20
48806;DHT22;34625;47.176;27.548;2023-04-19T08:59:28;25.60;49.30
48806;DHT22;34625;47.176;27.548;2023-04-19T09:01:59;25.70;47.00
48806;DHT22;34625;47.176;27.548;2023-04-19T09:04:25;25.60;46.20
48806;DHT22;34625;47.176;27.548;2023-04-19T09:06:52;25.70;45.00
48806;DHT22;34625;47.176;27.548;2023-04-19T09:09:25;25.70;44.30
48806;DHT22;34625;47.176;27.548;2023-04-19T09:11:51;25.60;45.10
48806;DHT22;34625;47.176;27.548;2023-04-19T09:14:19;25.50;44.00
48806;DHT22;34625;47.176;27.548;2023-04-19T09:16:45;25.40;45.50
48806;DHT22;34625;47.176;27.548;2023-04-19T09:19:12;25.60;44.90
48806;DHT22;34625;47.176;27.548;2023-04-19T09:21:39;25.60;44.80
48806;DHT22;34625;47.176;27.548;2023-04-19T09:24:05;25.50;44.60
48806;DHT22;34625;47.176;27.548;2023-04-19T09:26:32;25.40;45.70
48806;DHT22;34625;47.176;27.548;2023-04-19T09:31:34;25.40;50.00
48806;DHT22;34625;47.176;27.548;2023-04-19T09:34:15;25.30;49.50
48806;DHT22;34625;47.176;27.548;2023-04-19T09:36:41;25.30;52.40
48806;DHT22;34625;47.176;27.548;2023-04-19T09:39:07;25.30;53.40
48806;DHT22;34625;47.176;27.548;2023-04-19T09:41:33;25.20;53.80
48806;DHT22;34625;47.176;27.548;2023-04-19T09:44:11;25.10;53.30
48806;DHT22;34625;47.176;27.548;2023-04-19T09:46:40;25.00;54.20
48806;DHT22;34625;47.176;27.548;2023-04-19T09:51:50;25.00;52.30
48806;DHT22;34625;47.176;27.548;2023-04-19T09:54:18;25.00;54.00
48806;DHT22;34625;47.176;27.548;2023-04-19T09:56:45;25.00;56.50
48806;DHT22;34625;47.176;27.548;2023-04-19T09:59:12;25.00;56.40
48806;DHT22;34625;47.176;27.548;2023-04-19T10:01:51;25.00;51.60
48806;DHT22;34625;47.176;27.548;2023-04-19T10:04:19;24.90;51.30
48806;DHT22;34625;47.176;27.548;2023-04-19T10:06:50;25.10;49.40
48806;DHT22;34625;47.176;27.548;2023-04-19T10:09:23;25.10;47.90
48806;DHT22;34625;47.176;27.548;2023-04-19T10:11:52;25.20;45.60
48806;DHT22;34625;47.176;27.548;2023-04-19T10:14:21;25.20;56.10
48806;DHT22;34625;47.176;27.548;2023-04-19T10:16:49;25.10;55.30
48806;DHT22;34625;47.176;27.548;2023-04-19T10:19:17;25.10;55.00
48806;DHT22;34625;47.176;27.548;2023-04-19T10:21:44;25.10;55.10
48806;DHT22;34625;47.176;27.548;2023-04-19T10:24:13;25.00;54.00
48806;DHT22;34625;47.176;27.548;2023-04-19T10:27:08;25.00;54.20
48806;DHT22;34625;47.176;27.548;2023-04-19T10:30:00;25.00;53.40
48806;DHT22;34625;47.176;27.548;2023-04-19T10:32:30;24.90;55.10
48806;DHT22;34625;47.176;27.548;2023-04-19T10:35:06;25.00;54.60
48806;DHT22;34625;47.176;27.548;2023-04-19T10:37:32;24.90;54.50
48806;DHT22;34625;47.176;27.548;2023-04-19T10:39:58;24.90;54.90
48806;DHT22;34625;47.176;27.548;2023-04-19T10:42:24;24.80;53.40
48806;DHT22;34625;47.176;27.548;2023-04-19T10:45:31;24.80;53.00
48806;DHT22;34625;47.176;27.548;2023-04-19T10:47:58;24.90;51.70
48806;DHT22;34625;47.176;27.548;2023-04-19T10:50:24;25.00;53.70
48806;DHT22;34625;47.176;27.548;2023-04-19T10:52:51;25.00;51.70
48806;DHT22;34625;47.176;27.548;2023-04-19T10:55:18;25.10;51.10
48806;DHT22;34625;47.176;27.548;2023-04-19T10:58:03;25.10;51.30
48806;DHT22;34625;47.176;27.548;2023-04-19T11:00:30;25.10;45.60
48806;DHT22;34625;47.176;27.548;2023-04-19T11:02:58;25.10;54.20
48806;DHT22;34625;47.176;27.548;2023-04-19T11:05:25;25.10;55.50
48806;DHT22;34625;47.176;27.548;2023-04-19T11:07:52;25.00;53.00
48806;DHT22;34625;47.176;27.548;2023-04-19T11:10:28;25.00;54.40
48806;DHT22;34625;47.176;27.548;2023-04-19T11:12:58;24.90;54.80
48806;DHT22;34625;47.176;27.548;2023-04-19T11:15:24;25.00;53.60
48806;DHT22;34625;47.176;27.548;2023-04-19T11:17:50;24.90;53.80
48806;DHT22;34625;47.176;27.548;2023-04-19T11:20:20;24.90;54.70
48806;DHT22;34625;47.176;27.548;2023-04-19T11:22:47;24.80;54.70
48806;DHT22;34625;47.176;27.548;2023-04-19T11:25:15;25.00;55.70
48806;DHT22;34625;47.176;27.548;2023-04-19T11:27:47;25.00;55.40
48806;DHT22;34625;47.176;27.548;2023-04-19T11:30:18;24.70;55.80
48806;DHT22;34625;47.176;27.548;2023-04-19T11:32:51;24.90;56.50
48806;DHT22;34625;47.176;27.548;2023-04-19T11:35:19;25.00;57.10
48806;DHT22;34625;47.176;27.548;2023-04-19T11:37:46;25.00;56.90
48806;DHT22;34625;47.176;27.548;2023-04-19T11:40:16;24.90;56.20
48806;DHT22;34625;47.176;27.548;2023-04-19T11:42:43;24.90;56.10
48806;DHT22;34625;47.176;27.548;2023-04-19T11:45:11;25.00;56.70
48806;DHT22;34625;47.176;27.548;2023-04-19T11:47:48;24.90;55.20
48806;DHT22;34625;47.176;27.548;2023-04-19T11:50:37;24.80;56.10
48806;DHT22;34625;47.176;27.548;2023-04-19T11:55:50;24.80;55.60
48806;DHT22;34625;47.176;27.548;2023-04-19T12:00:51;24.80;57.10
48806;DHT22;34625;47.176;27.548;2023-04-19T12:03:21;24.90;56.70
48806;DHT22;34625;47.176;27.548;2023-04-19T12:05:56;24.90;55.70
48806;DHT22;34625;47.176;27.548;2023-04-19T12:08:35;24.90;56.40
48806;DHT22;34625;47.176;27.548;2023-04-19T12:11:03;24.90;56.00
48806;DHT22;34625;47.176;27.548;2023-04-19T12:13:29;24.80;55.80
48806;DHT22;34625;47.176;27.548;2023-04-19T12:15:56;24.80;58.30
48806;DHT22;34625;47.176;27.548;2023-04-19T12:18:22;24.70;58.70
48806;DHT22;34625;47.176;27.548;2023-04-19T12:20:50;24.70;60.00
48806;DHT22;34625;47.176;27.548;2023-04-19T12:23:18;24.80;58.90
48806;DHT22;34625;47.176;27.548;2023-04-19T12:25:46;24.70;58.10
48806;DHT22;34625;47.176;27.548;2023-04-19T12:28:14;24.70;59.60
48806;DHT22;34625;47.176;27.548;2023-04-19T12:30:40;24.80;57.80
48806;DHT22;34625;47.176;27.548;2023-04-19T12:33:07;24.80;58.10
48806;DHT22;34625;47.176;27.548;2023-04-19T12:35:33;24.70;57.90
48806;DHT22;34625;47.176;27.548;2023-04-19T12:38:00;24.80;57.90
48806;DHT22;34625;47.176;27.548;2023-04-19T12:40:28;24.80;58.30
48806;DHT22;34625;47.176;27.548;2023-04-19T12:42:55;24.80;57.80
48806;DHT22;34625;47.176;27.548;2023-04-19T12:45:21;24.80;57.80
48806;DHT22;34625;47.176;27.548;2023-04-19T12:47:47;24.80;57.90
48806;DHT22;34625;47.176;27.548;2023-04-19T12:50:14;24.80;57.50
48806;DHT22;34625;47.176;27.548;2023-04-19T12:52:44;24.90;57.20
48806;DHT22;34625;47.176;27.548;2023-04-19T12:55:10;24.90;57.60
48806;DHT22;34625;47.176;27.548;2023-04-19T12:57:37;24.80;56.60
48806;DHT22;34625;47.176;27.548;2023-04-19T13:00:03;24.80;57.30
48806;DHT22;34625;47.176;27.548;2023-04-19T13:02:33;24.80;56.80
48806;DHT22;34625;47.176;27.548;2023-04-19T13:04:59;24.90;56.70
48806;DHT22;34625;47.176;27.548;2023-04-19T13:07:25;24.80;56.20
48806;DHT22;34625;47.176;27.548;2023-04-19T13:09:53;24.80;56.20
48806;DHT22;34625;47.176;27.548;2023-04-19T13:12:19;24.80;56.00
48806;DHT22;34625;47.176;27.548;2023-04-19T13:14:45;24.70;57.00
48806;DHT22;34625;47.176;27.548;2023-04-19T13:17:19;24.80;56.50
48806;DHT22;34625;47.176;27.548;2023-04-19T13:19:45;24.80;57.00
48806;DHT22;34625;47.176;27.548;2023-04-19T13:22:12;24.70;56.70
48806;DHT22;34625;47.176;27.548;2023-04-19T13:24:38;24.70;55.90
48806;DHT22;34625;47.176;27.548;2023-04-19T13:27:04;24.70;56.90
48806;DHT22;34625;47.176;27.548;2023-04-19T13:29:30;24.70;56.60
48806;DHT22;34625;47.176;27.548;2023-04-19T13:31:56;24.80;54.90
48806;DHT22;34625;47.176;27.548;2023-04-19T13:34:22;24.60;56.20
48806;DHT22;34625;47.176;27.548;2023-04-19T13:36:48;24.70;56.20
48806;DHT22;34625;47.176;27.548;2023-04-19T13:39:14;24.70;57.30
48806;DHT22;34625;47.176;27.548;2023-04-19T13:41:40;24.60;57.00
48806;DHT22;34625;47.176;27.548;2023-04-19T13:44:06;24.50;56.50
48806;DHT22;34625;47.176;27.548;2023-04-19T13:46:32;24.70;57.00
48806;DHT22;34625;47.176;27.548;2023-04-19T13:48:58;24.60;56.40
48806;DHT22;34625;47.176;27.548;2023-04-19T13:51:25;24.70;55.30
48806;DHT22;34625;47.176;27.548;2023-04-19T13:53:52;24.60;56.00
48806;DHT22;34625;47.176;27.548;2023-04-19T13:56:18;24.60;55.90
48806;DHT22;34625;47.176;27.548;2023-04-19T13:58:44;24.70;55.80
48806;DHT22;34625;47.176;27.548;2023-04-19T14:01:11;24.70;54.70
48806;DHT22;34625;47.176;27.548;2023-04-19T14:03:37;24.70;56.00
48806;DHT22;34625;47.176;27.548;2023-04-19T14:06:03;24.50;55.30
48806;DHT22;34625;47.176;27.548;2023-04-19T14:08:29;24.70;55.80
48806;DHT22;34625;47.176;27.548;2023-04-19T14:10:55;24.70;55.90
48806;DHT22;34625;47.176;27.548;2023-04-19T14:13:21;24.50;54.80
48806;DHT22;34625;47.176;27.548;2023-04-19T14:15:47;24.50;55.40
48806;DHT22;34625;47.176;27.548;2023-04-19T14:18:13;24.40;55.70
48806;DHT22;34625;47.176;27.548;2023-04-19T14:20:39;24.70;53.90
48806;DHT22;34625;47.176;27.548;2023-04-19T14:23:05;24.50;50.50
48806;DHT22;34625;47.176;27.548;2023-04-19T14:25:31;24.40;53.50
48806;DHT22;34625;47.176;27.548;2023-04-19T14:27:58;24.40;50.60
48806;DHT22;34625;47.176;27.548;2023-04-19T14:30:24;24.40;52.70
48806;DHT22;34625;47.176;27.548;2023-04-19T14:32:51;24.30;54.50
48806;DHT22;34625;47.176;27.548;2023-04-19T14:35:17;24.50;58.30
48806;DHT22;34625;47.176;27.548;2023-04-19T14:37:43;24.60;59.40
48806;DHT22;34625;47.176;27.548;2023-04-19T14:40:09;24.70;59.60
48806;DHT22;34625;47.176;27.548;2023-04-19T14:42:35;24.90;56.20
48806;DHT22;34625;47.176;27.548;2023-04-19T14:45:01;24.90;60.00
48806;DHT22;34625;47.176;27.548;2023-04-19T14:47:28;24.80;57.30
48806;DHT22;34625;47.176;27.548;2023-04-19T14:49:54;24.80;56.10
48806;DHT22;34625;47.176;27.548;2023-04-19T14:52:20;24.70;56.70
48806;DHT22;34625;47.176;27.548;2023-04-19T14:54:46;24.80;58.20
48806;DHT22;34625;47.176;27.548;2023-04-19T14:57:12;24.90;57.80
48806;DHT22;34625;47.176;27.548;2023-04-19T14:59:38;24.90;57.10
48806;DHT22;34625;47.176;27.548;2023-04-19T15:02:04;24.90;55.60
48806;DHT22;34625;47.176;27.548;2023-04-19T15:04:33;24.90;51.90
48806;DHT22;34625;47.176;27.548;2023-04-19T15:07:01;24.80;52.60
48806;DHT22;34625;47.176;27.548;2023-04-19T15:09:27;24.80;50.90
48806;DHT22;34625;47.176;27.548;2023-04-19T15:11:53;24.90;53.10
48806;DHT22;34625;47.176;27.548;2023-04-19T15:14:19;24.80;46.10
48806;DHT22;34625;47.176;27.548;2023-04-19T15:16:45;24.50;48.80
48806;DHT22;34625;47.176;27.548;2023-04-19T15:19:11;24.50;51.70
48806;DHT22;34625;47.176;27.548;2023-04-19T15:21:37;24.50;53.80
48806;DHT22;34625;47.176;27.548;2023-04-19T15:24:04;24.60;48.20
48806;DHT22;34625;47.176;27.548;2023-04-19T15:26:31;24.40;50.60
48806;DHT22;34625;47.176;27.548;2023-04-19T15:28:57;24.40;51.30